Time;durP1;ratioP1;P1;durP2;ratioP2;P2;SDS_P1;SDS_P2;PMS_P1;PMS_P2;Temp;Humidity;BMP_temperature;BMP_pressure;BME280_temperature;BME280_humidity;BME280_pressure;Samples;Min_cycle;Max_cycle;Signal;HPM_P1;HPM_P2
2023/12/10 00:02:53;;;;;;;23.00;3.70;;;9.00;22.70;;;;;;6280261;28;20127;-91
2023/12/10 00:05:55;;;;;;;24.63;3.92;;;9.00;21.40;;;;;;6305699;28;20055;-91
2023/12/10 00:09:11;;;;;;;22.20;4.10;;;9.00;18.80;;;;;;6258782;28;20122;-89
2023/12/10 00:12:13;;;;;;;26.27;3.92;;;8.90;20.10;;;;;;6297918;28;20115;-91
2023/12/10 00:15:15;;;;;;;18.02;3.45;;;9.00;21.80;;;;;;6303260;28;20044;-93
2023/12/10 00:18:18;;;;;;;23.40;3.53;;;9.00;18.30;;;;;;6281988;28;20041;-91
2023/12/10 00:21:20;;;;;;;21.38;3.20;;;9.00;19.20;;;;;;6303613;28;20055;-90
2023/12/10 00:24:22;;;;;;;21.58;3.97;;;8.90;20.60;;;;;;6276040;28;20131;-89
2023/12/10 00:27:24;;;;;;;20.15;3.67;;;8.90;22.40;;;;;;6289563;28;20049;-89
2023/12/10 00:30:26;;;;;;;18.33;3.67;;;8.80;21.00;;;;;;6298387;28;20149;-90
2023/12/10 00:33:27;;;;;;;22.50;4.00;;;8.80;25.40;;;;;;6251860;28;20057;-91
2023/12/10 00:36:29;;;;;;;23.42;3.70;;;8.70;26.20;;;;;;6300684;28;20051;-91
2023/12/10 00:39:31;;;;;;;19.95;3.63;;;8.70;28.50;;;;;;6299368;28;20450;-91
2023/12/10 00:42:33;;;;;;;19.92;3.28;;;8.70;26.20;;;;;;6278812;28;20052;-91
2023/12/10 00:45:35;;;;;;;22.50;4.15;;;8.70;28.70;;;;;;6300128;28;20072;-91
2023/12/10 00:48:37;;;;;;;25.38;3.45;;;8.70;26.20;;;;;;6251676;28;20062;-91
2023/12/10 00:51:40;;;;;;;23.60;3.13;;;8.60;28.50;;;;;;6319169;28;20052;-92
2023/12/10 00:54:41;;;;;;;25.48;3.80;;;8.60;28.40;;;;;;6277924;28;20419;-91
2023/12/10 00:57:43;;;;;;;20.52;3.70;;;8.60;35.30;;;;;;6299788;28;20044;-94
2023/12/10 01:00:45;;;;;;;27.30;3.92;;;8.60;31.60;;;;;;6281821;28;20045;-91
2023/12/10 01:03:47;;;;;;;22.00;3.42;;;8.60;34.00;;;;;;6277521;28;20636;-91
2023/12/10 01:06:49;;;;;;;26.73;4.15;;;8.60;34.70;;;;;;6299779;28;20102;-90
2023/12/10 01:09:51;;;;;;;20.08;3.70;;;8.60;33.20;;;;;;6277041;28;20049;-90
2023/12/10 01:12:53;;;;;;;22.75;3.58;;;8.60;37.50;;;;;;6294502;28;20122;-91
2023/12/10 01:15:55;;;;;;;21.08;3.97;;;8.60;36.00;;;;;;6277277;28;20053;-89
2023/12/10 01:18:57;;;;;;;22.55;3.63;;;8.60;38.30;;;;;;6301210;28;20495;-89
2023/12/10 01:21:58;;;;;;;21.75;4.15;;;8.60;39.10;;;;;;6280242;28;20079;-92
2023/12/10 01:25:04;;;;;;;19.38;3.25;;;8.70;36.50;;;;;;6254074;28;20116;-91
2023/12/10 01:28:06;;;;;;;21.25;4.00;;;8.60;39.50;;;;;;6293240;28;20040;-91
2023/12/10 01:31:08;;;;;;;26.23;3.80;;;8.70;41.70;;;;;;6278329;28;20084;-92
2023/12/10 01:34:09;;;;;;;27.95;4.30;;;8.60;44.40;;;;;;6309006;28;20048;-91
2023/12/10 01:37:12;;;;;;;24.23;3.80;;;8.60;46.10;;;;;;6279886;28;20072;-92
2023/12/10 01:40:13;;;;;;;22.23;3.50;;;8.60;50.30;;;;;;6288391;28;20052;-92
2023/12/10 01:43:17;;;;;;;26.42;3.95;;;8.60;50.20;;;;;;6293477;28;20127;-91
2023/12/10 01:46:21;;;;;;;24.27;4.22;;;8.70;51.50;;;;;;6279082;28;20156;-93
2023/12/10 01:49:25;;;;;;;20.98;3.42;;;8.50;57.50;;;;;;6303081;28;20146;-91
2023/12/10 01:52:27;;;;;;;26.90;3.50;;;8.60;58.50;;;;;;6277098;28;20068;-91
2023/12/10 01:55:29;;;;;;;24.63;4.13;;;8.70;59.40;;;;;;6301543;28;20052;-91
2023/12/10 01:58:30;;;;;;;23.73;3.83;;;8.60;61.70;;;;;;6284302;28;20072;-92
2023/12/10 02:01:32;;;;;;;26.98;3.60;;;8.60;61.80;;;;;;6290199;28;20057;-93
2023/12/10 02:04:34;;;;;;;21.85;3.97;;;8.60;66.60;;;;;;6276906;28;20582;-91
2023/12/10 02:07:36;;;;;;;24.20;3.70;;;8.60;66.30;;;;;;6281169;28;20098;-91
2023/12/10 02:10:40;;;;;;;19.45;3.63;;;8.70;69.00;;;;;;6304094;28;20072;-91
2023/12/10 02:13:41;;;;;;;28.38;3.47;;;8.50;72.20;;;;;;6288189;28;20056;-93
2023/12/10 02:16:44;;;;;;;23.05;3.72;;;8.50;76.90;;;;;;6284828;28;20117;-92
2023/12/10 02:19:45;;;;;;;22.35;3.25;;;8.60;75.10;;;;;;6281821;28;20136;-91
2023/12/10 02:22:47;;;;;;;19.50;3.45;;;8.60;73.60;;;;;;6306645;28;20079;-91
2023/12/10 02:25:50;;;;;;;31.73;4.10;;;8.60;72.20;;;;;;6284180;28;20048;-92
2023/12/10 02:28:52;;;;;;;22.90;3.75;;;8.50;73.80;;;;;;6295410;28;20142;-92
2023/12/10 02:31:54;;;;;;;24.10;3.35;;;8.50;76.90;;;;;;6311574;28;20064;-92
2023/12/10 02:34:55;;;;;;;20.30;3.45;;;8.40;76.90;;;;;;6289484;28;20048;-91
2023/12/10 02:37:57;;;;;;;20.17;3.88;;;8.30;78.50;;;;;;6316376;28;20052;-91
2023/12/10 02:40:59;;;;;;;24.92;3.42;;;8.20;81.00;;;;;;6291913;28;20322;-92
2023/12/10 02:44:01;;;;;;;21.67;3.58;;;8.10;84.40;;;;;;6300691;28;20480;-92
2023/12/10 02:47:03;;;;;;;25.15;3.45;;;8.10;85.40;;;;;;6315565;28;20074;-92
2023/12/10 02:50:05;;;;;;;23.42;3.47;;;8.20;85.60;;;;;;6277723;28;20073;-92
2023/12/10 02:53:07;;;;;;;17.52;3.22;;;8.20;86.80;;;;;;6314489;28;20488;-92
2023/12/10 02:56:09;;;;;;;27.13;3.75;;;8.10;90.30;;;;;;6294760;28;20072;-92
2023/12/10 02:59:10;;;;;;;25.92;4.38;;;8.10;91.50;;;;;;6304636;28;20052;-91
2023/12/10 03:02:13;;;;;;;27.17;3.95;;;8.00;93.10;;;;;;6322471;28;20057;-92
2023/12/10 03:05:15;;;;;;;17.15;3.55;;;8.00;94.30;;;;;;6296739;28;20045;-92
2023/12/10 03:08:17;;;;;;;20.70;3.33;;;8.00;94.80;;;;;;6321171;28;20040;-94
2023/12/10 03:11:19;;;;;;;24.77;3.65;;;8.00;95.60;;;;;;6267697;28;20564;-94
2023/12/10 03:14:22;;;;;;;29.27;4.32;;;8.00;95.60;;;;;;6292292;28;20052;-91
2023/12/10 03:17:23;;;;;;;25.25;4.05;;;8.20;95.60;;;;;;6275831;28;20140;-91
2023/12/10 03:20:25;;;;;;;28.00;4.40;;;8.20;95.60;;;;;;6311520;28;20112;-92
2023/12/10 03:23:27;;;;;;;27.75;4.25;;;8.30;95.20;;;;;;6284010;28;20112;-91
2023/12/10 03:26:29;;;;;;;22.92;3.40;;;8.30;95.20;;;;;;6304498;28;20052;-94
2023/12/10 03:29:30;;;;;;;17.65;3.47;;;8.40;95.10;;;;;;6277473;28;20045;-93
2023/12/10 03:32:32;;;;;;;31.20;3.65;;;8.40;94.90;;;;;;6311451;28;20058;-92
2023/12/10 03:35:34;;;;;;;23.92;3.58;;;8.30;95.40;;;;;;6281692;28;20053;-93
2023/12/10 03:38:36;;;;;;;21.88;3.25;;;8.30;96.80;;;;;;6302316;28;20438;-93
2023/12/10 03:41:38;;;;;;;27.33;3.60;;;8.20;97.00;;;;;;6276531;28;20053;-92
2023/12/10 03:44:39;;;;;;;29.02;3.60;;;8.10;99.10;;;;;;6299214;28;20052;-92
2023/12/10 03:47:46;;;;;;;28.42;3.85;;;8.10;99.80;;;;;;6277230;28;20045;-92
2023/12/10 03:50:49;;;;;;;26.52;3.78;;;8.00;99.90;;;;;;6279625;28;20539;-92
2023/12/10 03:53:51;;;;;;;29.52;4.22;;;8.00;99.90;;;;;;6299928;28;20056;-92
2023/12/10 03:56:52;;;;;;;26.15;3.92;;;8.00;99.90;;;;;;6275588;28;20182;-91
2023/12/10 03:59:54;;;;;;;28.42;4.20;;;8.00;99.90;;;;;;6291273;28;20053;-93
2023/12/10 04:02:56;;;;;;;28.85;4.35;;;8.00;99.90;;;;;;6276692;28;20056;-92
2023/12/10 04:05:57;;;;;;;22.10;3.83;;;8.10;99.90;;;;;;6300867;28;20048;-92
2023/12/10 04:08:59;;;;;;;26.42;3.97;;;8.10;99.90;;;;;;6275766;28;20055;-92
2023/12/10 04:12:01;;;;;;;30.38;4.10;;;8.00;99.90;;;;;;6300738;28;20110;-92
2023/12/10 04:15:03;;;;;;;23.70;3.85;;;7.90;99.90;;;;;;6276387;28;20057;-91
2023/12/10 04:18:05;;;;;;;28.33;4.32;;;7.90;99.90;;;;;;6300540;28;20445;-93
2023/12/10 04:21:07;;;;;;;26.35;4.38;;;7.90;99.90;;;;;;6277228;28;20487;-92
2023/12/10 04:24:08;;;;;;;25.77;4.05;;;7.80;99.90;;;;;;6276217;28;20415;-93
2023/12/10 04:27:10;;;;;;;28.77;3.95;;;7.80;99.90;;;;;;6300182;28;20134;-92
2023/12/10 04:30:12;;;;;;;22.08;4.07;;;7.80;99.90;;;;;;6274560;28;20045;-93
2023/12/10 04:33:14;;;;;;;29.02;4.13;;;7.80;99.90;;;;;;6299415;28;20052;-93
2023/12/10 04:36:16;;;;;;;23.13;3.88;;;7.70;99.90;;;;;;6274514;28;20049;-93
2023/12/10 04:39:19;;;;;;;18.20;3.55;;;7.70;99.90;;;;;;6299757;28;20189;-92
2023/12/10 04:42:21;;;;;;;21.88;3.72;;;7.70;99.90;;;;;;6275664;28;20049;-93
2023/12/10 04:45:22;;;;;;;20.65;3.28;;;7.70;99.90;;;;;;6257253;28;20057;-93
2023/12/10 04:48:24;;;;;;;26.25;3.60;;;7.70;99.90;;;;;;6249705;28;20077;-93
2023/12/10 04:51:26;;;;;;;20.90;3.60;;;7.70;99.90;;;;;;6314584;28;20048;-92
2023/12/10 04:54:28;;;;;;;17.70;3.08;;;7.80;99.90;;;;;;6273849;28;20071;-92
2023/12/10 04:57:29;;;;;;;26.80;3.38;;;7.90;99.90;;;;;;6295957;28;20119;-90
2023/12/10 05:00:31;;;;;;;20.40;3.53;;;7.90;99.90;;;;;;6282199;28;20152;-92
2023/12/10 05:03:33;;;;;;;23.58;3.58;;;7.90;99.90;;;;;;6296478;28;20052;-93
2023/12/10 05:06:35;;;;;;;20.75;3.03;;;8.00;99.90;;;;;;6265055;28;20053;-93
2023/12/10 05:09:37;;;;;;;21.65;3.22;;;8.00;99.90;;;;;;6298959;28;20174;-93
2023/12/10 05:12:39;;;;;;;22.38;2.88;;;8.00;99.90;;;;;;6275487;28;20835;-93
2023/12/10 05:15:40;;;;;;;17.13;2.92;;;8.10;99.90;;;;;;6292873;28;20412;-94
2023/12/10 05:18:42;;;;;;;20.02;2.60;;;8.10;99.90;;;;;;6249449;28;20049;-92
2023/12/10 05:21:44;;;;;;;18.73;3.15;;;8.10;99.90;;;;;;6313816;28;20044;-93
2023/12/10 05:24:46;;;;;;;22.70;3.40;;;8.10;99.90;;;;;;6273046;28;20052;-93
2023/12/10 05:27:48;;;;;;;16.60;3.15;;;8.10;99.90;;;;;;6280981;28;20048;-89
2023/12/10 05:30:51;;;;;;;19.52;3.03;;;8.00;99.90;;;;;;6297510;28;20052;-92
2023/12/10 05:33:52;;;;;;;17.63;3.00;;;7.90;99.90;;;;;;6249143;28;20049;-93
2023/12/10 05:36:54;;;;;;;31.52;3.70;;;8.00;99.90;;;;;;6301359;28;20136;-93
2023/12/10 05:39:56;;;;;;;25.73;3.78;;;7.90;99.90;;;;;;6301883;28;20055;-92
2023/12/10 05:42:58;;;;;;;19.83;2.95;;;7.90;99.90;;;;;;6281092;28;20487;-93
2023/12/10 05:45:59;;;;;;;16.55;2.33;;;7.90;99.90;;;;;;6302981;28;20054;-92
2023/12/10 05:49:01;;;;;;;24.40;3.67;;;7.90;99.90;;;;;;6278759;28;20059;-94
2023/12/10 05:52:03;;;;;;;19.25;3.05;;;7.90;99.90;;;;;;6303642;28;20076;-93
2023/12/10 05:55:05;;;;;;;19.35;2.97;;;8.10;99.90;;;;;;6277889;28;20060;-92
2023/12/10 05:58:07;;;;;;;20.00;2.83;;;8.20;99.90;;;;;;6298821;28;20106;-93
2023/12/10 06:01:08;;;;;;;17.08;2.88;;;8.30;99.90;;;;;;6280482;28;20053;-92
2023/12/10 06:04:10;;;;;;;16.70;2.72;;;8.30;99.90;;;;;;6301925;28;20932;-92
2023/12/10 06:07:12;;;;;;;14.05;2.60;;;8.30;99.90;;;;;;6276921;28;20055;-92
2023/12/10 06:10:14;;;;;;;21.10;2.90;;;8.30;99.90;;;;;;6302803;28;20045;-92
2023/12/10 06:13:16;;;;;;;17.65;3.15;;;8.30;99.90;;;;;;6282636;28;20048;-93
2023/12/10 06:16:17;;;;;;;19.23;3.25;;;8.30;99.90;;;;;;6279119;28;20052;-93
2023/12/10 06:19:19;;;;;;;24.88;3.45;;;8.40;99.90;;;;;;6304157;28;20060;-92
2023/12/10 06:22:21;;;;;;;19.45;2.60;;;8.50;99.90;;;;;;6279491;28;20060;-92
2023/12/10 06:25:23;;;;;;;18.50;3.25;;;8.50;99.90;;;;;;6302394;28;20071;-93
2023/12/10 06:28:24;;;;;;;20.73;2.70;;;8.50;99.90;;;;;;6286222;28;20044;-92
2023/12/10 06:31:26;;;;;;;23.13;3.35;;;8.60;99.90;;;;;;6278940;28;20055;-93
2023/12/10 06:34:28;;;;;;;20.08;3.15;;;8.60;99.90;;;;;;6301765;28;20052;-92
2023/12/10 06:37:32;;;;;;;17.70;3.22;;;8.50;99.90;;;;;;6278280;28;20072;-92
2023/12/10 06:40:33;;;;;;;20.38;3.20;;;8.60;99.90;;;;;;6298743;28;20576;-92
2023/12/10 06:43:35;;;;;;;23.25;3.17;;;8.60;99.90;;;;;;6288116;28;20045;-92
2023/12/10 06:46:37;;;;;;;22.65;3.88;;;8.70;99.90;;;;;;6302332;28;20133;-92
2023/12/10 06:49:39;;;;;;;24.50;3.70;;;8.80;99.90;;;;;;6276908;28;20045;-93
2023/12/10 06:52:41;;;;;;;25.77;4.03;;;8.80;99.90;;;;;;6285636;28;20052;-92
2023/12/10 06:55:42;;;;;;;26.30;3.85;;;8.90;99.90;;;;;;6301506;28;20044;-93
2023/12/10 06:58:44;;;;;;;24.50;3.88;;;8.80;99.90;;;;;;6285039;28;20048;-92
2023/12/10 07:01:46;;;;;;;23.48;3.92;;;8.80;99.90;;;;;;6275790;28;20057;-93
2023/12/10 07:04:47;;;;;;;27.50;4.15;;;8.80;99.90;;;;;;6276923;28;20060;-93
2023/12/10 07:07:49;;;;;;;31.02;4.95;;;8.70;99.90;;;;;;6278861;28;20057;-93
2023/12/10 07:10:51;;;;;;;24.60;4.47;;;8.70;99.90;;;;;;6306094;28;20048;-93
2023/12/10 07:13:55;;;;;;;32.03;3.92;;;8.70;99.90;;;;;;6289373;28;20052;-92
2023/12/10 07:16:57;;;;;;;29.88;4.13;;;8.60;99.90;;;;;;6273189;28;20061;-93
2023/12/10 07:19:59;;;;;;;35.28;4.65;;;8.60;99.90;;;;;;6300138;28;20060;-93
2023/12/10 07:23:02;;;;;;;38.38;4.70;;;8.60;99.90;;;;;;6275981;28;20440;-93
2023/12/10 07:26:03;;;;;;;31.73;4.88;;;8.60;99.90;;;;;;6287926;28;20076;-93
2023/12/10 07:29:05;;;;;;;32.42;4.80;;;8.60;99.90;;;;;;6286008;28;20041;-93
2023/12/10 07:32:07;;;;;;;28.30;4.93;;;8.70;99.90;;;;;;6300317;28;20056;-93
2023/12/10 07:35:09;;;;;;;32.83;4.65;;;8.70;99.90;;;;;;6276122;28;20408;-93
2023/12/10 07:38:11;;;;;;;31.50;4.78;;;8.70;99.90;;;;;;6299773;28;20490;-94
2023/12/10 07:41:13;;;;;;;26.15;4.80;;;8.60;99.90;;;;;;6277294;28;20055;-93
2023/12/10 07:44:14;;;;;;;28.00;4.22;;;8.60;99.90;;;;;;6284161;28;20052;-92
2023/12/10 07:47:16;;;;;;;43.97;5.32;;;8.60;99.90;;;;;;6299257;28;20131;-92
2023/12/10 07:50:18;;;;;;;28.10;4.75;;;8.70;99.90;;;;;;6277678;28;20057;-93
2023/12/10 07:53:19;;;;;;;30.45;4.93;;;8.70;99.90;;;;;;6300087;28;20057;-92
2023/12/10 07:56:21;;;;;;;33.50;4.80;;;8.80;99.90;;;;;;6275535;28;20679;-94
2023/12/10 07:59:23;;;;;;;26.23;4.00;;;8.80;99.90;;;;;;6281845;28;20052;-92
2023/12/10 08:02:26;;;;;;;31.02;4.70;;;8.90;99.90;;;;;;6305899;28;20495;-93
2023/12/10 08:05:29;;;;;;;32.00;4.38;;;8.80;99.90;;;;;;6287909;28;20056;-92
2023/12/10 08:08:30;;;;;;;30.50;4.38;;;8.80;99.90;;;;;;6251531;28;20105;-94
2023/12/10 08:11:32;;;;;;;24.80;4.13;;;8.70;99.90;;;;;;6301962;28;20053;-93
2023/12/10 08:14:35;;;;;;;30.35;4.47;;;8.70;99.90;;;;;;6255406;28;20061;-92
2023/12/10 08:17:37;;;;;;;37.60;5.30;;;8.70;99.90;;;;;;6299325;28;20056;-93
2023/12/10 08:20:39;;;;;;;33.63;5.60;;;8.70;99.90;;;;;;6273675;28;20056;-93
2023/12/10 08:23:40;;;;;;;35.60;4.70;;;8.70;99.90;;;;;;6289492;28;20056;-93
2023/12/10 08:26:42;;;;;;;42.13;5.55;;;8.70;99.90;;;;;;6276940;28;20053;-92
2023/12/10 08:29:44;;;;;;;31.65;5.15;;;8.80;99.90;;;;;;6266566;28;20063;-94
2023/12/10 08:32:45;;;;;;;34.97;5.50;;;8.70;99.90;;;;;;6249708;28;20053;-93
2023/12/10 08:35:47;;;;;;;29.75;4.80;;;8.80;99.90;;;;;;6277117;28;20057;-94
2023/12/10 08:38:49;;;;;;;34.80;5.13;;;8.80;99.90;;;;;;6251575;28;20050;-89
2023/12/10 08:41:50;;;;;;;39.08;5.32;;;8.90;99.90;;;;;;6289007;28;20055;-87
2023/12/10 08:44:52;;;;;;;29.50;5.45;;;9.00;99.90;;;;;;6247879;28;20064;-88
2023/12/10 08:47:54;;;;;;;30.52;4.90;;;9.10;99.90;;;;;;6276601;28;20059;-88
2023/12/10 08:50:56;;;;;;;37.38;5.15;;;9.20;99.90;;;;;;6259429;28;20141;-86
2023/12/10 08:53:59;;;;;;;32.10;4.88;;;9.20;99.90;;;;;;6274350;28;20049;-87
2023/12/10 08:57:01;;;;;;;32.25;5.47;;;9.40;99.90;;;;;;6250538;28;20086;-85
2023/12/10 09:00:03;;;;;;;29.75;5.30;;;9.40;99.90;;;;;;6275465;28;20421;-86
2023/12/10 09:03:04;;;;;;;31.17;4.93;;;9.50;99.90;;;;;;6285241;28;20064;-86
2023/12/10 09:06:06;;;;;;;39.20;5.90;;;9.60;99.90;;;;;;6292118;28;20148;-85
2023/12/10 09:09:08;;;;;;;35.60;5.80;;;9.70;99.90;;;;;;6248944;28;20050;-90
2023/12/10 09:12:10;;;;;;;34.95;5.07;;;9.70;99.90;;;;;;6290050;28;20079;-91
2023/12/10 09:15:11;;;;;;;38.78;5.10;;;9.80;99.90;;;;;;6298606;28;20046;-89
2023/12/10 09:18:13;;;;;;;30.88;5.15;;;9.90;99.90;;;;;;6263113;28;20110;-85
2023/12/10 09:21:15;;;;;;;33.90;4.35;;;10.00;99.90;;;;;;6299119;28;20388;-87
2023/12/10 09:24:17;;;;;;;34.10;4.80;;;10.00;99.90;;;;;;6278836;28;20135;-90
2023/12/10 09:27:18;;;;;;;23.15;3.30;;;10.20;99.90;;;;;;6277234;28;20053;-91
2023/12/10 09:30:20;;;;;;;20.85;3.28;;;10.30;99.90;;;;;;6281058;28;20058;-89
2023/12/10 09:33:22;;;;;;;24.65;3.00;;;10.40;99.90;;;;;;6302749;28;20052;-83
2023/12/10 09:36:24;;;;;;;27.23;3.47;;;10.40;99.90;;;;;;6274111;28;20572;-88
2023/12/10 09:39:26;;;;;;;30.13;4.20;;;10.60;99.90;;;;;;6297743;28;20052;-87
2023/12/10 09:42:28;;;;;;;29.67;3.50;;;10.60;99.90;;;;;;6269403;28;20045;-86
2023/12/10 09:45:30;;;;;;;25.40;3.50;;;10.70;99.90;;;;;;6293458;28;20056;-86
2023/12/10 09:48:32;;;;;;;27.83;4.10;;;10.80;99.90;;;;;;6296578;28;20053;-87
2023/12/10 09:51:34;;;;;;;23.52;3.80;;;10.80;99.90;;;;;;6276056;28;20076;-86
2023/12/10 09:54:37;;;;;;;28.25;4.13;;;10.80;99.90;;;;;;6290254;28;20065;-85
2023/12/10 09:57:39;;;;;;;29.23;4.68;;;10.80;99.90;;;;;;6277228;28;20053;-87
2023/12/10 10:00:40;;;;;;;20.55;4.15;;;10.80;99.90;;;;;;6292637;28;20076;-86
2023/12/10 10:03:44;;;;;;;27.25;3.97;;;10.80;99.90;;;;;;6273254;28;20099;-87
2023/12/10 10:06:45;;;;;;;21.45;2.97;;;10.80;99.90;;;;;;6296349;28;20146;-87
2023/12/10 10:09:47;;;;;;;34.97;4.75;;;10.90;99.90;;;;;;6274448;28;20557;-87
2023/12/10 10:12:50;;;;;;;26.30;3.42;;;10.80;99.90;;;;;;6270435;28;20113;-86
2023/12/10 10:15:53;;;;;;;30.98;3.90;;;10.90;99.90;;;;;;6269514;28;20053;-89
2023/12/10 10:18:55;;;;;;;29.77;3.70;;;10.90;99.90;;;;;;6279209;28;20107;-91
2023/12/10 10:21:57;;;;;;;30.00;4.05;;;11.00;99.90;;;;;;6292047;28;20147;-92
2023/12/10 10:24:59;;;;;;;27.88;5.03;;;11.10;99.90;;;;;;6269522;28;20463;-90
2023/12/10 10:28:02;;;;;;;28.40;3.92;;;11.10;99.90;;;;;;6264562;28;20197;-88
2023/12/10 10:31:05;;;;;;;26.05;3.95;;;11.10;99.90;;;;;;6261258;28;20054;-92
2023/12/10 10:34:06;;;;;;;36.58;5.57;;;11.10;99.90;;;;;;6303106;28;20060;-91
2023/12/10 10:37:08;;;;;;;31.30;5.28;;;11.00;99.90;;;;;;6274576;28;20045;-88
2023/12/10 10:40:10;;;;;;;34.78;4.43;;;11.10;99.90;;;;;;6271988;28;20049;-88
2023/12/10 10:43:12;;;;;;;31.60;4.45;;;11.00;99.90;;;;;;6291997;28;20052;-88
2023/12/10 10:46:14;;;;;;;35.95;4.93;;;11.00;99.90;;;;;;6278863;28;20041;-88
2023/12/10 10:49:16;;;;;;;38.13;5.45;;;11.10;99.90;;;;;;6302975;28;20055;-89
2023/12/10 10:52:19;;;;;;;31.25;4.75;;;11.10;99.90;;;;;;6276781;28;20070;-89
2023/12/10 10:55:21;;;;;;;22.90;4.00;;;11.20;99.90;;;;;;6280503;28;20072;-88
2023/12/10 10:58:23;;;;;;;21.90;3.30;;;11.10;99.90;;;;;;6289581;28;20060;-91
2023/12/10 11:01:25;;;;;;;11.18;1.92;;;11.00;94.40;;;;;;6285010;28;20141;-89
2023/12/10 11:04:27;;;;;;;21.08;3.25;;;10.70;70.30;;;;;;6295333;28;20067;-88
2023/12/10 11:07:29;;;;;;;32.70;4.97;;;10.50;99.20;;;;;;6270992;28;20195;-89
2023/12/10 11:10:31;;;;;;;35.92;4.88;;;10.40;99.90;;;;;;6275450;28;20388;-88
2023/12/10 11:13:32;;;;;;;40.50;5.35;;;10.40;99.90;;;;;;6283316;28;20393;-88
2023/12/10 11:16:34;;;;;;;28.52;4.68;;;10.50;99.90;;;;;;6270697;28;20052;-91
2023/12/10 11:19:36;;;;;;;35.67;5.97;;;10.50;99.90;;;;;;6301436;28;20054;-89
2023/12/10 11:22:38;;;;;;;36.38;5.80;;;10.50;99.90;;;;;;6261104;28;20061;-90
2023/12/10 11:25:40;;;;;;;30.27;4.85;;;10.50;99.90;;;;;;6268901;28;20176;-88
2023/12/10 11:28:42;;;;;;;32.70;4.63;;;10.50;99.90;;;;;;6276247;28;20052;-87
2023/12/10 11:31:44;;;;;;;27.42;4.72;;;10.50;99.90;;;;;;6276366;28;20214;-89
2023/12/10 11:34:46;;;;;;;27.73;4.30;;;10.50;99.90;;;;;;6273572;28;20531;-85
2023/12/10 11:37:48;;;;;;;31.20;4.20;;;10.50;99.90;;;;;;6293856;28;20058;-87
2023/12/10 11:40:50;;;;;;;42.13;5.13;;;10.50;99.90;;;;;;6264434;28;20064;-88
2023/12/10 11:43:53;;;;;;;28.42;4.57;;;10.50;99.90;;;;;;6264484;28;20049;-87
2023/12/10 11:46:57;;;;;;;23.08;4.03;;;10.50;99.90;;;;;;6267648;28;20059;-87
2023/12/10 11:49:59;;;;;;;35.75;5.07;;;10.50;99.90;;;;;;6283153;28;20056;-92
2023/12/10 11:53:00;;;;;;;32.88;4.28;;;10.40;99.90;;;;;;6277112;28;20089;-85
2023/12/10 11:56:02;;;;;;;32.20;4.78;;;10.40;99.90;;;;;;6262855;28;20049;-92
2023/12/10 11:59:04;;;;;;;32.42;4.80;;;10.40;99.90;;;;;;6275085;28;20053;-83
2023/12/10 12:02:09;;;;;;;29.17;4.28;;;10.30;99.90;;;;;;6276068;28;20423;-87
2023/12/10 12:05:11;;;;;;;30.23;4.45;;;10.30;99.90;;;;;;6255505;28;20068;-85
2023/12/10 12:08:17;;;;;;;30.27;4.10;;;10.30;99.90;;;;;;6268543;28;20488;-88
2023/12/10 12:11:19;;;;;;;33.50;4.18;;;10.40;99.90;;;;;;6274956;28;20534;-87
2023/12/10 12:14:24;;;;;;;27.33;3.90;;;10.40;99.90;;;;;;6267155;28;20112;-86
2023/12/10 12:17:25;;;;;;;25.48;4.50;;;10.40;99.90;;;;;;6257123;28;20046;-86
2023/12/10 12:20:28;;;;;;;18.58;3.05;;;10.40;99.90;;;;;;6256037;28;20110;-84
2023/12/10 12:23:30;;;;;;;22.10;3.60;;;10.40;99.90;;;;;;6258696;28;20057;-85
2023/12/10 12:26:31;;;;;;;22.75;3.50;;;10.30;99.90;;;;;;6244349;28;20053;-87
2023/12/10 12:29:33;;;;;;;17.77;2.95;;;10.30;99.90;;;;;;6290142;28;20048;-87
2023/12/10 12:32:35;;;;;;;20.80;3.00;;;10.20;99.90;;;;;;6269789;28;20511;-86
2023/12/10 12:35:36;;;;;;;21.85;3.80;;;10.20;99.90;;;;;;6291428;28;20080;-85
2023/12/10 12:38:38;;;;;;;22.23;3.08;;;10.20;99.90;;;;;;6248146;28;20544;-86
2023/12/10 12:41:40;;;;;;;18.10;2.83;;;10.10;99.90;;;;;;6291226;28;20056;-85
2023/12/10 12:44:41;;;;;;;15.82;2.33;;;10.10;99.90;;;;;;6253308;28;20538;-85
2023/12/10 12:47:43;;;;;;;14.23;3.13;;;10.20;99.90;;;;;;6247595;28;20053;-86
2023/12/10 12:50:45;;;;;;;13.45;2.50;;;10.10;99.90;;;;;;6258578;28;20053;-85
2023/12/10 12:53:46;;;;;;;16.05;2.92;;;10.20;99.90;;;;;;6259396;28;20053;-85
2023/12/10 12:57:08;;;;;;;11.85;2.10;;;10.20;99.90;;;;;;6249002;28;20135;-85
2023/12/10 13:00:11;;;;;;;12.35;2.30;;;10.30;99.90;;;;;;6289249;28;20048;-85
2023/12/10 13:03:13;;;;;;;8.18;1.70;;;10.30;99.90;;;;;;6252132;28;20048;-85
2023/12/10 13:06:15;;;;;;;7.22;1.35;;;10.40;99.90;;;;;;6273071;28;20511;-86
2023/12/10 13:09:17;;;;;;;7.10;1.42;;;10.30;99.90;;;;;;6284041;28;20392;-86
2023/12/10 13:12:19;;;;;;;6.70;1.15;;;10.40;99.90;;;;;;6263620;28;20052;-83
2023/12/10 13:15:21;;;;;;;4.70;1.15;;;10.30;99.90;;;;;;6265814;28;20056;-84
2023/12/10 13:18:22;;;;;;;6.35;1.10;;;10.40;99.90;;;;;;6250078;28;20132;-84
2023/12/10 13:21:24;;;;;;;6.38;1.00;;;10.40;99.90;;;;;;6250242;28;20057;-83
2023/12/10 13:24:26;;;;;;;5.32;1.17;;;10.40;99.90;;;;;;6259034;28;20045;-84
2023/12/10 13:27:28;;;;;;;4.57;0.90;;;10.40;99.90;;;;;;6269311;28;20057;-83
2023/12/10 13:30:30;;;;;;;3.33;0.80;;;10.40;99.90;;;;;;6265758;28;20049;-84
2023/12/10 13:33:32;;;;;;;2.72;0.70;;;10.40;99.90;;;;;;6252310;28;20061;-85
2023/12/10 13:36:34;;;;;;;2.83;0.60;;;10.40;99.90;;;;;;6275742;28;20159;-83
2023/12/10 13:39:35;;;;;;;2.78;0.80;;;10.40;99.90;;;;;;6289660;28;20087;-83
2023/12/10 13:42:37;;;;;;;2.78;0.60;;;10.40;99.90;;;;;;6278369;28;20078;-83
2023/12/10 13:45:39;;;;;;;3.40;0.70;;;10.40;99.90;;;;;;6261002;28;20063;-85
2023/12/10 13:48:41;;;;;;;1.60;0.50;;;10.50;99.90;;;;;;6291796;28;20064;-84
2023/12/10 13:51:43;;;;;;;1.48;0.50;;;10.50;99.90;;;;;;6267916;28;20535;-85
2023/12/10 13:54:44;;;;;;;2.22;0.60;;;10.60;99.90;;;;;;6266691;28;20057;-84
2023/12/10 13:57:46;;;;;;;1.75;0.50;;;10.60;99.90;;;;;;6272041;28;20045;-84
2023/12/10 14:00:48;;;;;;;1.35;0.50;;;10.70;99.90;;;;;;6275985;28;20056;-85
2023/12/10 14:03:50;;;;;;;1.60;0.50;;;10.70;99.90;;;;;;6293220;28;20052;-85
2023/12/10 14:06:51;;;;;;;1.80;0.70;;;10.80;99.90;;;;;;6272064;28;20052;-85
2023/12/10 14:09:53;;;;;;;1.67;0.70;;;10.80;99.90;;;;;;6291599;28;20060;-85
2023/12/10 14:12:55;;;;;;;0.63;0.35;;;10.90;99.90;;;;;;6274058;28;20049;-85
2023/12/10 14:15:56;;;;;;;1.85;0.50;;;10.90;99.90;;;;;;6292449;28;20081;-86
2023/12/10 14:18:58;;;;;;;2.05;0.73;;;11.00;99.90;;;;;;6295093;28;20123;-85
2023/12/10 14:22:00;;;;;;;1.38;0.55;;;11.10;99.90;;;;;;6272522;28;20419;-85
2023/12/10 14:25:02;;;;;;;1.85;0.60;;;11.10;99.90;;;;;;6296160;28;20056;-84
2023/12/10 14:28:04;;;;;;;2.08;0.70;;;11.20;99.90;;;;;;6273194;28;20523;-85
2023/12/10 14:31:05;;;;;;;4.28;0.93;;;11.30;99.90;;;;;;6270665;28;20096;-84
2023/12/10 14:34:07;;;;;;;3.08;0.80;;;11.40;99.90;;;;;;6269651;28;20049;-85
2023/12/10 14:37:08;;;;;;;3.28;0.80;;;11.50;99.90;;;;;;6293821;28;20059;-85
2023/12/10 14:40:10;;;;;;;3.00;0.80;;;11.60;99.90;;;;;;6271504;28;20140;-84
2023/12/10 14:43:12;;;;;;;2.28;0.75;;;11.60;99.90;;;;;;6277216;28;20056;-85
2023/12/10 14:46:14;;;;;;;4.60;0.88;;;11.70;99.90;;;;;;6257983;28;20440;-84
2023/12/10 14:49:15;;;;;;;1.63;0.60;;;11.80;99.90;;;;;;6295575;28;20059;-85
2023/12/10 14:52:23;;;;;;;1.95;0.70;;;11.80;99.90;;;;;;6265539;28;20056;-84
2023/12/10 14:55:25;;;;;;;3.70;0.80;;;11.80;99.90;;;;;;6294143;28;20061;-85
2023/12/10 14:58:27;;;;;;;4.40;1.20;;;11.80;99.90;;;;;;6278855;28;20052;-85
2023/12/10 15:01:33;;;;;;;2.50;1.00;;;11.80;99.90;;;;;;6283571;28;20056;-85
2023/12/10 15:04:35;;;;;;;3.38;1.10;;;11.70;99.90;;;;;;6271654;28;20069;-85
2023/12/10 15:07:41;;;;;;;3.35;1.10;;;11.80;99.90;;;;;;6294905;28;20091;-83
2023/12/10 15:10:43;;;;;;;4.65;1.30;;;11.70;99.90;;;;;;6246832;28;20050;-89
2023/12/10 15:13:45;;;;;;;3.35;1.10;;;11.70;99.90;;;;;;6264804;28;20061;-85
2023/12/10 15:16:47;;;;;;;4.97;1.30;;;11.70;99.90;;;;;;6261908;28;20045;-83
2023/12/10 15:19:48;;;;;;;4.72;1.35;;;11.70;99.90;;;;;;6294547;28;20082;-85
2023/12/10 15:22:50;;;;;;;4.80;1.20;;;11.60;99.90;;;;;;6256024;28;20061;-85
2023/12/10 15:25:52;;;;;;;5.45;1.38;;;11.70;99.90;;;;;;6280267;28;20147;-86
2023/12/10 15:28:54;;;;;;;3.13;1.20;;;11.60;99.90;;;;;;6284726;28;20052;-86
2023/12/10 15:31:56;;;;;;;5.85;1.30;;;11.60;99.90;;;;;;6260955;28;20119;-83
2023/12/10 15:34:59;;;;;;;4.22;1.35;;;11.80;99.90;;;;;;6246974;28;20053;-85
2023/12/10 15:38:02;;;;;;;4.93;1.23;;;11.80;99.90;;;;;;6262067;28;20418;-85
2023/12/10 15:41:04;;;;;;;7.18;1.20;;;11.80;99.90;;;;;;6248511;28;20493;-85
2023/12/10 15:44:05;;;;;;;6.78;1.88;;;11.80;99.90;;;;;;6276785;28;20063;-85
2023/12/10 15:47:07;;;;;;;4.70;1.50;;;11.80;99.90;;;;;;6293301;28;20101;-85